Estación Meteorológica Peña el Pijo (Robertgarden) [ 01/30/23 15:24:41 CET ]

Fecha Hora Presion(HPa) Temp (°C) Humedad % Rocio (°C) Viento ( m/s) Direccion Lluvia 1Hora(mm) Lluvia 24H(mm) LLuvia Total(mm)
2012-Jun-16 01:01:12 1015.500 15.8 57 7.3         159.54
2012-Jun-16 02:01:15 1015.500 14.6 61 7.2         159.54
2012-Jun-16 03:04:14 1015.300 13.3 63 6.4         159.54
2012-Jun-16 04:01:12 1015.200 13.2 62 6.0         159.54
2012-Jun-16 05:01:14 1014.900 12.5 64 5.8         159.54
2012-Jun-16 06:01:17 1014.800 12.9 63 6.0         159.54
2012-Jun-16 07:01:14 1015.000 12.5 63 5.6         159.54
2012-Jun-16 08:01:13 1015.300 15.1 61 7.6         159.54
2012-Jun-16 09:01:14 1015.500 21.3 50 10.5         159.54
2012-Jun-16 10:01:16 1015.700 27.2 31 8.6         159.54
2012-Jun-16 11:01:14 1015.300 32.1 24 8.8         159.54
2012-Jun-16 12:01:17 1015.300 34.8 21 9.2         159.54
2012-Jun-16 13:01:13 1014.700 32.1 24 8.8         159.54
2012-Jun-16 14:01:16 1014.800 31.1 25 8.5         159.54
2012-Jun-16 15:01:13 1014.300 35.3 21 9.6         159.54
2012-Jun-16 16:01:12 1014.100 34.6 20 8.4         159.54
2012-Jun-16 17:01:14 1013.800 32.6 22 8.0         159.54
2012-Jun-16 18:01:11 1013.800 29.9 26 8.1 2.6 NE     159.54
2012-Jun-16 19:01:16 1013.900 28.7 29 8.8         159.54
2012-Jun-16 20:01:14 1014.200 28.5 31 9.7         159.54
2012-Jun-16 21:01:17 1014.300 26.6 34 9.4         159.54
2012-Jun-16 22:01:15 1014.600 24.1 38 8.8         159.54
2012-Jun-16 23:01:11 1015.200 20.4 47 8.7         159.54

Temperatura Máxima:35°    Temperatura Mínima:12°
Presión Máxima:1015.700 Hpa    Presión Mínima:1013.800 Hpa


Volver